Time;durP1;ratioP1;P1;durP2;ratioP2;P2;SDS_P1;SDS_P2;PMS_P1;PMS_P2;Temp;Humidity;BMP_temperature;BMP_pressure;BME280_temperature;BME280_humidity;BME280_pressure;Samples;Min_cycle;Max_cycle;Signal;HPM_P1;HPM_P2
2023/12/22 00:01:52;;;;;;;27.13;5.97;;;;;;;;;;5019487;28;25022;-73
2023/12/22 00:04:18;;;;;;;23.25;6.05;;;;;;;;;;5028204;28;25140;-74
2023/12/22 00:06:46;;;;;;;23.38;4.68;;;;;;;;;;5025159;28;25101;-75
2023/12/22 00:09:12;;;;;;;20.90;4.97;;;;;;;;;;5023779;28;25057;-72
2023/12/22 00:11:38;;;;;;;36.08;6.10;;;;;;;;;;5027309;28;25092;-72
2023/12/22 00:14:04;;;;;;;29.88;6.70;;;;;;;;;;5023716;28;25112;-74
2023/12/22 00:16:30;;;;;;;26.90;7.00;;;;;;;;;;5028735;28;25059;-70
2023/12/22 00:18:57;;;;;;;31.63;7.18;;;;;;;;;;5028307;28;25053;-73
2023/12/22 00:21:23;;;;;;;26.63;6.40;;;;;;;;;;5027922;28;25067;-71
2023/12/22 00:23:49;;;;;;;29.25;7.03;;;;;;;;;;5022445;28;25127;-71
2023/12/22 00:26:15;;;;;;;23.42;5.35;;;;;;;;;;5022865;28;25177;-73
2023/12/22 00:28:42;;;;;;;29.42;6.03;;;;;;;;;;5029243;28;25065;-73
2023/12/22 00:31:08;;;;;;;25.23;5.28;;;;;;;;;;5027633;28;25059;-72
2023/12/22 00:33:34;;;;;;;28.13;5.50;;;;;;;;;;5029298;28;25086;-72
2023/12/22 00:36:00;;;;;;;28.20;6.10;;;;;;;;;;5024054;28;25072;-71
2023/12/22 00:38:26;;;;;;;28.33;6.28;;;;;;;;;;5028321;28;25059;-71
2023/12/22 00:40:52;;;;;;;12.63;4.40;;;;;;;;;;5029914;28;25053;-72
2023/12/22 00:43:18;;;;;;;20.05;5.00;;;;;;;;;;5027376;28;25064;-72
2023/12/22 00:45:44;;;;;;;18.92;4.53;;;;;;;;;;5027518;28;25059;-72
2023/12/22 00:48:10;;;;;;;20.10;4.65;;;;;;;;;;5028117;28;25149;-72
2023/12/22 00:50:36;;;;;;;23.95;4.70;;;;;;;;;;5031928;28;25130;-71
2023/12/22 00:53:02;;;;;;;26.92;6.35;;;;;;;;;;5028993;28;25054;-74
2023/12/22 00:55:28;;;;;;;22.75;5.07;;;;;;;;;;5028585;28;25078;-71
2023/12/22 00:57:54;;;;;;;26.10;6.25;;;;;;;;;;5021625;28;25070;-72
2023/12/22 01:00:20;;;;;;;32.58;6.60;;;;;;;;;;5031231;28;25071;-71
2023/12/22 01:02:46;;;;;;;24.65;6.18;;;;;;;;;;5031999;28;25085;-73
2023/12/22 01:05:12;;;;;;;31.02;6.05;;;;;;;;;;5030359;28;25092;-71
2023/12/22 01:07:38;;;;;;;29.08;5.72;;;;;;;;;;5026182;28;25099;-71
2023/12/22 01:10:05;;;;;;;26.50;6.80;;;;;;;;;;5030759;28;25165;-69
2023/12/22 01:12:31;;;;;;;26.40;5.03;;;;;;;;;;5025096;28;25066;-72
2023/12/22 01:14:57;;;;;;;21.45;5.57;;;;;;;;;;5025661;28;25179;-73
2023/12/22 01:17:23;;;;;;;27.08;5.60;;;;;;;;;;5025704;28;25145;-70
2023/12/22 01:19:50;;;;;;;25.85;5.00;;;;;;;;;;5030347;28;25113;-71
2023/12/22 01:22:17;;;;;;;26.10;5.25;;;;;;;;;;5030870;28;25095;-74
2023/12/22 01:24:45;;;;;;;23.77;4.80;;;;;;;;;;5024805;28;25089;-73
2023/12/22 01:27:11;;;;;;;18.08;5.00;;;;;;;;;;5028569;28;25101;-71
2023/12/22 01:29:37;;;;;;;18.27;5.03;;;;;;;;;;5027094;28;25085;-72
2023/12/22 01:32:03;;;;;;;23.70;5.30;;;;;;;;;;5033559;28;25062;-72
2023/12/22 01:34:29;;;;;;;32.17;6.20;;;;;;;;;;5028535;28;25131;-72
2023/12/22 01:36:55;;;;;;;22.15;5.40;;;;;;;;;;5029208;28;25131;-70
2023/12/22 01:39:21;;;;;;;26.67;4.65;;;;;;;;;;5028062;28;25299;-71
2023/12/22 01:41:47;;;;;;;19.70;4.30;;;;;;;;;;5028181;28;25137;-70
2023/12/22 01:44:13;;;;;;;17.80;4.03;;;;;;;;;;5029132;28;25117;-71
2023/12/22 01:46:39;;;;;;;23.75;5.03;;;;;;;;;;5029564;28;25057;-70
2023/12/22 01:49:06;;;;;;;30.42;6.38;;;;;;;;;;5029429;28;25061;-70
2023/12/22 01:51:33;;;;;;;24.75;5.03;;;;;;;;;;5031456;28;25071;-70
2023/12/22 01:53:59;;;;;;;28.95;5.88;;;;;;;;;;5027802;28;25074;-71
2023/12/22 01:56:25;;;;;;;30.45;5.68;;;;;;;;;;5028652;28;25127;-72
2023/12/22 01:58:53;;;;;;;22.55;5.18;;;;;;;;;;5024465;28;25140;-71
2023/12/22 02:01:20;;;;;;;26.48;5.40;;;;;;;;;;5026349;28;25159;-72
2023/12/22 02:03:52;;;;;;;34.58;4.90;;;;;;;;;;5026369;28;25063;-70
2023/12/22 02:06:18;;;;;;;33.55;5.80;;;;;;;;;;5024403;28;25149;-70
2023/12/22 02:08:45;;;;;;;24.33;6.85;;;;;;;;;;5029921;28;25054;-69
2023/12/22 02:11:11;;;;;;;27.30;7.15;;;;;;;;;;5034885;28;25060;-73
2023/12/22 02:13:37;;;;;;;22.50;7.45;;;;;;;;;;5030869;28;25091;-70
2023/12/22 02:16:08;;;;;;;29.42;7.15;;;;;;;;;;5031034;28;25062;-71
2023/12/22 02:18:35;;;;;;;37.80;7.63;;;;;;;;;;5029849;28;25080;-72
2023/12/22 02:21:01;;;;;;;32.47;7.25;;;;;;;;;;5031958;28;25081;-73
2023/12/22 02:23:27;;;;;;;33.60;7.20;;;;;;;;;;5034314;28;25077;-71
2023/12/22 02:25:57;;;;;;;35.65;7.65;;;;;;;;;;5030288;28;25085;-72
2023/12/22 02:28:24;;;;;;;26.27;6.15;;;;;;;;;;5032855;28;25068;-72
2023/12/22 02:30:57;;;;;;;31.42;6.47;;;;;;;;;;5042377;28;25077;-72
2023/12/22 02:33:23;;;;;;;;;;;;;;;;;;5031483;28;25072;-71
2023/12/22 02:35:49;;;;;;;19.48;5.32;;;;;;;;;;5026047;28;24170;-74
2023/12/22 02:38:16;;;;;;;25.67;5.32;;;;;;;;;;5026446;28;25131;-73
2023/12/22 02:40:42;;;;;;;22.13;6.00;;;;;;;;;;5029723;28;25094;-70
2023/12/22 02:43:08;;;;;;;23.10;4.88;;;;;;;;;;5030961;28;25074;-70
2023/12/22 02:45:34;;;;;;;16.17;4.22;;;;;;;;;;5032397;28;25165;-69
2023/12/22 02:48:00;;;;;;;16.35;4.65;;;;;;;;;;5027989;28;25138;-69
2023/12/22 02:50:26;;;;;;;23.05;4.97;;;;;;;;;;5030624;28;25075;-70
2023/12/22 02:52:52;;;;;;;14.52;4.65;;;;;;;;;;5030956;28;25156;-70
2023/12/22 02:55:18;;;;;;;26.58;5.47;;;;;;;;;;5032937;28;25065;-70
2023/12/22 02:57:44;;;;;;;28.10;4.95;;;;;;;;;;5032905;28;25088;-71
2023/12/22 03:00:10;;;;;;;25.88;6.65;;;;;;;;;;5046439;28;25065;-71
2023/12/22 03:02:36;;;;;;;27.85;7.07;;;;;;;;;;5049378;28;25058;-70
2023/12/22 03:05:02;;;;;;;22.65;5.25;;;;;;;;;;5050605;28;25088;-71
2023/12/22 03:07:28;;;;;;;21.27;4.22;;;;;;;;;;5049744;28;25080;-70
2023/12/22 03:09:54;;;;;;;25.63;5.07;;;;;;;;;;5054668;28;25055;-70
2023/12/22 03:12:20;;;;;;;21.35;5.07;;;;;;;;;;5048918;28;25061;-72
2023/12/22 03:14:46;;;;;;;25.05;4.95;;;;;;;;;;5042253;28;25116;-70
2023/12/22 03:17:12;;;;;;;29.40;5.50;;;;;;;;;;5033464;28;25062;-71
2023/12/22 03:19:39;;;;;;;23.10;5.18;;;;;;;;;;5027496;28;25055;-71
2023/12/22 03:22:05;;;;;;;21.83;4.75;;;;;;;;;;5027865;28;25191;-71
2023/12/22 03:24:31;;;;;;;22.92;4.85;;;;;;;;;;5030641;28;25101;-69
2023/12/22 03:26:57;;;;;;;16.55;3.67;;;;;;;;;;5027640;28;25069;-70
2023/12/22 03:29:23;;;;;;;19.58;4.47;;;;;;;;;;5032395;28;25064;-73
2023/12/22 03:31:51;;;;;;;21.92;4.57;;;;;;;;;;5029007;28;25098;-71
2023/12/22 03:34:17;;;;;;;19.00;5.13;;;;;;;;;;5021751;28;25069;-70
2023/12/22 03:36:44;;;;;;;20.65;3.95;;;;;;;;;;5026979;28;25152;-72
2023/12/22 03:39:10;;;;;;;21.83;4.43;;;;;;;;;;5030350;28;25070;-71
2023/12/22 03:41:36;;;;;;;22.10;5.13;;;;;;;;;;5028348;28;25063;-71
2023/12/22 03:44:02;;;;;;;25.60;5.82;;;;;;;;;;5032644;28;25057;-71
2023/12/22 03:46:28;;;;;;;20.35;4.50;;;;;;;;;;5028454;28;25107;-72
2023/12/22 03:48:54;;;;;;;25.40;4.90;;;;;;;;;;5029250;28;25143;-71
2023/12/22 03:51:20;;;;;;;20.25;4.70;;;;;;;;;;5032778;28;25135;-72
2023/12/22 03:53:46;;;;;;;20.45;5.43;;;;;;;;;;5032652;28;25075;-71
2023/12/22 03:56:12;;;;;;;19.73;4.70;;;;;;;;;;5026568;28;25089;-70
2023/12/22 03:58:38;;;;;;;21.35;4.07;;;;;;;;;;5028504;28;25078;-72
2023/12/22 04:01:07;;;;;;;25.05;4.55;;;;;;;;;;5032554;28;25075;-72
2023/12/22 04:03:34;;;;;;;22.67;3.90;;;;;;;;;;5028309;28;25057;-71
2023/12/22 04:06:03;;;;;;;20.55;4.40;;;;;;;;;;5030968;28;25126;-72
2023/12/22 04:08:29;;;;;;;23.92;4.90;;;;;;;;;;5034315;28;25070;-74
2023/12/22 04:10:55;;;;;;;16.48;3.72;;;;;;;;;;5027550;28;25054;-73
2023/12/22 04:13:22;;;;;;;22.13;4.45;;;;;;;;;;5024699;28;25075;-72
2023/12/22 04:15:48;;;;;;;17.77;3.80;;;;;;;;;;5025759;28;25071;-72
2023/12/22 04:18:14;;;;;;;20.42;4.68;;;;;;;;;;5030720;28;25080;-71
2023/12/22 04:20:40;;;;;;;15.05;3.63;;;;;;;;;;5026806;28;25044;-71
2023/12/22 04:23:05;;;;;;;14.27;4.25;;;;;;;;;;5031848;28;25091;-70
2023/12/22 04:25:31;;;;;;;18.38;3.55;;;;;;;;;;5028168;28;25082;-73
2023/12/22 04:27:57;;;;;;;15.98;3.53;;;;;;;;;;5028214;28;25086;-73
2023/12/22 04:30:23;;;;;;;17.75;4.00;;;;;;;;;;5026907;28;25061;-73
2023/12/22 04:32:49;;;;;;;18.35;3.30;;;;;;;;;;5033318;28;25074;-71
2023/12/22 04:35:15;;;;;;;19.33;3.90;;;;;;;;;;5027665;28;25072;-75
2023/12/22 04:37:41;;;;;;;18.10;4.57;;;;;;;;;;5024404;28;25143;-72
2023/12/22 04:40:07;;;;;;;14.60;4.68;;;;;;;;;;5027082;28;25069;-73
2023/12/22 04:42:33;;;;;;;19.75;5.65;;;;;;;;;;5023097;28;25054;-71
2023/12/22 04:44:59;;;;;;;15.38;4.60;;;;;;;;;;5029830;28;25088;-72
2023/12/22 04:47:25;;;;;;;12.13;4.28;;;;;;;;;;5032795;28;25103;-73
2023/12/22 04:49:52;;;;;;;17.27;3.80;;;;;;;;;;5024674;28;25074;-72
2023/12/22 04:52:17;;;;;;;15.13;4.50;;;;;;;;;;5017049;28;25100;-71
2023/12/22 04:54:43;;;;;;;19.65;5.35;;;;;;;;;;5027212;28;25089;-73
2023/12/22 04:57:09;;;;;;;16.60;4.60;;;;;;;;;;5022085;28;25061;-71
2023/12/22 04:59:35;;;;;;;22.05;6.07;;;;;;;;;;5029450;28;25069;-70
2023/12/22 05:02:01;;;;;;;22.90;6.35;;;;;;;;;;5028279;28;25061;-73
2023/12/22 05:04:27;;;;;;;25.58;7.25;;;;;;;;;;5043292;28;25068;-71
2023/12/22 05:06:54;;;;;;;31.15;7.30;;;;;;;;;;5025542;28;25069;-70
2023/12/22 05:09:20;;;;;;;29.40;6.50;;;;;;;;;;5028493;28;25100;-71
2023/12/22 05:11:46;;;;;;;27.77;7.05;;;;;;;;;;5028688;28;25090;-72
2023/12/22 05:14:12;;;;;;;25.58;6.68;;;;;;;;;;5028419;28;25118;-72
2023/12/22 05:16:37;;;;;;;33.13;8.52;;;;;;;;;;5032194;28;25059;-70
2023/12/22 05:19:03;;;;;;;26.38;6.38;;;;;;;;;;5030722;28;25052;-71
2023/12/22 05:21:30;;;;;;;31.27;8.27;;;;;;;;;;5026225;28;25076;-71
2023/12/22 05:23:56;;;;;;;29.90;8.27;;;;;;;;;;5027896;28;25145;-72
2023/12/22 05:26:22;;;;;;;37.95;10.55;;;;;;;;;;5028707;28;25075;-72
2023/12/22 05:28:51;;;;;;;41.30;10.00;;;;;;;;;;5024000;28;25059;-71
2023/12/22 05:31:19;;;;;;;44.78;11.32;;;;;;;;;;5032225;28;25100;-72
2023/12/22 05:33:45;;;;;;;44.72;14.38;;;;;;;;;;5022956;28;25072;-71
2023/12/22 05:36:11;;;;;;;46.65;15.02;;;;;;;;;;5033147;28;25200;-71
2023/12/22 05:38:40;;;;;;;51.15;17.75;;;;;;;;;;5035273;28;25047;-72
2023/12/22 05:41:06;;;;;;;48.40;16.40;;;;;;;;;;5029698;28;25160;-73
2023/12/22 05:43:36;;;;;;;43.63;15.80;;;;;;;;;;5029601;28;25099;-71
2023/12/22 05:46:02;;;;;;;48.08;18.00;;;;;;;;;;5028233;28;25144;-73
2023/12/22 05:48:28;;;;;;;50.65;19.83;;;;;;;;;;5028081;28;25072;-75
2023/12/22 05:50:56;;;;;;;60.38;19.50;;;;;;;;;;5031381;28;25073;-70
2023/12/22 05:53:22;;;;;;;48.72;17.35;;;;;;;;;;5027441;28;25048;-74
2023/12/22 05:55:48;;;;;;;50.92;17.35;;;;;;;;;;5025801;28;25104;-72
2023/12/22 05:58:14;;;;;;;48.95;16.63;;;;;;;;;;5038798;28;25082;-73
2023/12/22 06:00:41;;;;;;;47.38;18.02;;;;;;;;;;5029496;28;25080;-71
2023/12/22 06:03:07;;;;;;;52.92;17.58;;;;;;;;;;5022799;28;25073;-71
2023/12/22 06:05:33;;;;;;;48.60;17.35;;;;;;;;;;5022065;28;25150;-73
2023/12/22 06:07:59;;;;;;;44.15;14.55;;;;;;;;;;5019339;28;25139;-71
2023/12/22 06:10:25;;;;;;;58.05;13.25;;;;;;;;;;5029124;28;25064;-70
2023/12/22 06:12:51;;;;;;;46.88;12.57;;;;;;;;;;5026168;28;25056;-73
2023/12/22 06:15:17;;;;;;;59.85;13.02;;;;;;;;;;5020705;28;25109;-72
2023/12/22 06:17:43;;;;;;;44.00;10.82;;;;;;;;;;5028512;28;25069;-72
2023/12/22 06:20:09;;;;;;;54.00;13.20;;;;;;;;;;5025196;28;25141;-72
2023/12/22 06:22:35;;;;;;;47.20;10.55;;;;;;;;;;5029190;28;25101;-71
2023/12/22 06:25:07;;;;;;;46.72;10.88;;;;;;;;;;5028732;28;25093;-74
2023/12/22 06:27:33;;;;;;;37.15;11.05;;;;;;;;;;5021785;28;25099;-72
2023/12/22 06:29:58;;;;;;;42.67;10.77;;;;;;;;;;5025753;28;25053;-70
2023/12/22 06:32:24;;;;;;;41.80;10.73;;;;;;;;;;5030395;28;25136;-72
2023/12/22 06:34:50;;;;;;;51.63;10.77;;;;;;;;;;5028948;28;25113;-70
2023/12/22 06:37:16;;;;;;;40.58;10.63;;;;;;;;;;5026585;28;25138;-71
2023/12/22 06:39:42;;;;;;;48.13;10.25;;;;;;;;;;5021680;28;25164;-71
2023/12/22 06:42:11;;;;;;;46.13;9.40;;;;;;;;;;5028762;28;25072;-71
2023/12/22 06:44:37;;;;;;;46.17;10.57;;;;;;;;;;5027640;28;25092;-72
2023/12/22 06:47:03;;;;;;;40.58;8.90;;;;;;;;;;5023703;28;25061;-71
2023/12/22 06:49:29;;;;;;;51.88;10.45;;;;;;;;;;5031753;28;25100;-70
2023/12/22 06:51:55;;;;;;;33.38;8.30;;;;;;;;;;5029409;28;25053;-71
2023/12/22 06:54:21;;;;;;;46.78;9.20;;;;;;;;;;5029611;28;25063;-72
2023/12/22 06:56:47;;;;;;;44.97;10.77;;;;;;;;;;5028526;28;25058;-70
2023/12/22 06:59:13;;;;;;;45.83;10.05;;;;;;;;;;5026259;28;25043;-71
2023/12/22 07:01:39;;;;;;;47.15;10.82;;;;;;;;;;5029908;28;25110;-71
2023/12/22 07:04:06;;;;;;;38.53;9.52;;;;;;;;;;5027280;28;25087;-72
2023/12/22 07:06:33;;;;;;;36.10;8.32;;;;;;;;;;5022327;28;25060;-71
2023/12/22 07:09:12;;;;;;;54.45;11.43;;;;;;;;;;5022161;28;25085;-71
2023/12/22 07:11:42;;;;;;;41.75;9.80;;;;;;;;;;5023252;28;25089;-71
2023/12/22 07:14:09;;;;;;;44.58;9.98;;;;;;;;;;5022252;28;25066;-71
2023/12/22 07:16:35;;;;;;;39.10;9.20;;;;;;;;;;5031544;28;25071;-72
2023/12/22 07:19:01;;;;;;;40.13;9.68;;;;;;;;;;5030159;28;25148;-70
2023/12/22 07:21:27;;;;;;;44.97;9.15;;;;;;;;;;5031873;28;25048;-71
2023/12/22 07:23:53;;;;;;;42.47;9.60;;;;;;;;;;5029135;28;25092;-71
2023/12/22 07:26:21;;;;;;;36.97;8.02;;;;;;;;;;5034659;28;25061;-70
2023/12/22 07:28:47;;;;;;;42.85;10.35;;;;;;;;;;5032019;28;25068;-69
2023/12/22 07:31:13;;;;;;;32.65;9.55;;;;;;;;;;5036078;28;25056;-70
2023/12/22 07:33:43;;;;;;;36.80;8.75;;;;;;;;;;5031005;28;25107;-71
2023/12/22 07:36:09;;;;;;;56.35;9.70;;;;;;;;;;5040568;28;25092;-70
2023/12/22 07:38:35;;;;;;;41.13;9.20;;;;;;;;;;5041726;28;25198;-71
2023/12/22 07:41:01;;;;;;;30.58;9.20;;;;;;;;;;5034840;28;25060;-71
2023/12/22 07:43:29;;;;;;;30.92;7.88;;;;;;;;;;5033558;28;25064;-73
2023/12/22 07:45:55;;;;;;;34.78;9.75;;;;;;;;;;5029950;28;25119;-71
2023/12/22 07:48:21;;;;;;;26.88;7.70;;;;;;;;;;5036216;28;25083;-71
2023/12/22 07:50:47;;;;;;;33.03;8.55;;;;;;;;;;5037884;28;25076;-69
2023/12/22 07:53:13;;;;;;;35.90;10.38;;;;;;;;;;5037262;28;25072;-71
2023/12/22 07:55:39;;;;;;;34.25;10.10;;;;;;;;;;5029795;28;25088;-71
2023/12/22 07:58:05;;;;;;;33.67;9.75;;;;;;;;;;5031935;28;25070;-71
2023/12/22 08:00:32;;;;;;;31.13;10.35;;;;;;;;;;5033826;28;25063;-72
2023/12/22 08:02:58;;;;;;;26.40;10.57;;;;;;;;;;5029912;28;25067;-73
2023/12/22 08:05:24;;;;;;;33.30;11.48;;;;;;;;;;5032363;28;25106;-71
2023/12/22 08:07:50;;;;;;;35.72;10.25;;;;;;;;;;5022254;28;25135;-71
2023/12/22 08:10:16;;;;;;;38.92;11.80;;;;;;;;;;5031943;28;25092;-70
2023/12/22 08:12:42;;;;;;;26.45;10.77;;;;;;;;;;5030544;28;25084;-72
2023/12/22 08:15:12;;;;;;;29.73;10.73;;;;;;;;;;5029976;28;25100;-73
2023/12/22 08:17:38;;;;;;;32.45;11.25;;;;;;;;;;5032499;28;25090;-71
2023/12/22 08:20:07;;;;;;;27.30;10.98;;;;;;;;;;5032280;28;25160;-70
2023/12/22 08:22:34;;;;;;;32.10;11.52;;;;;;;;;;5028691;28;25072;-70
2023/12/22 08:25:00;;;;;;;33.53;12.35;;;;;;;;;;5034890;28;25059;-71
2023/12/22 08:27:26;;;;;;;33.13;11.98;;;;;;;;;;5026934;28;25066;-70
2023/12/22 08:29:52;;;;;;;26.48;10.85;;;;;;;;;;5050312;28;25077;-69
2023/12/22 08:32:19;;;;;;;27.98;11.55;;;;;;;;;;5048563;28;25100;-70
2023/12/22 08:34:45;;;;;;;23.52;10.55;;;;;;;;;;5038149;28;25100;-69
2023/12/22 08:37:11;;;;;;;25.23;11.23;;;;;;;;;;5043727;28;25085;-70
2023/12/22 08:39:37;;;;;;;23.17;10.40;;;;;;;;;;5036878;28;25181;-72
2023/12/22 08:42:04;;;;;;;29.95;10.88;;;;;;;;;;5033610;28;25055;-71
2023/12/22 08:44:30;;;;;;;19.77;8.95;;;;;;;;;;5032710;28;25056;-71
2023/12/22 08:46:56;;;;;;;21.67;9.43;;;;;;;;;;5027054;28;25052;-69
2023/12/22 08:49:22;;;;;;;27.65;11.45;;;;;;;;;;5027769;28;25094;-71
2023/12/22 08:51:48;;;;;;;25.48;9.07;;;;;;;;;;5029945;28;25114;-70
2023/12/22 08:54:15;;;;;;;21.00;9.95;;;;;;;;;;5029251;28;25104;-72
2023/12/22 08:56:41;;;;;;;17.13;9.60;;;;;;;;;;5029324;28;25107;-70
2023/12/22 08:59:08;;;;;;;19.20;9.45;;;;;;;;;;5030349;28;25097;-72
2023/12/22 09:01:35;;;;;;;23.48;8.60;;;;;;;;;;5021326;28;25094;-71
2023/12/22 09:04:01;;;;;;;14.52;9.30;;;;;;;;;;5026283;28;25114;-71
2023/12/22 09:06:27;;;;;;;21.42;9.48;;;;;;;;;;5029548;28;25126;-73
2023/12/22 09:08:53;;;;;;;25.30;10.73;;;;;;;;;;5029860;28;25076;-72
2023/12/22 09:11:21;;;;;;;16.48;9.40;;;;;;;;;;5033625;28;25056;-72
2023/12/22 09:13:47;;;;;;;17.98;9.80;;;;;;;;;;5029105;28;25059;-74
2023/12/22 09:16:15;;;;;;;24.13;9.57;;;;;;;;;;5029012;28;25130;-71
2023/12/22 09:18:42;;;;;;;22.13;8.88;;;;;;;;;;5028465;28;25057;-70
2023/12/22 09:21:08;;;;;;;16.23;8.32;;;;;;;;;;5029986;28;25089;-69
2023/12/22 09:23:34;;;;;;;20.00;9.57;;;;;;;;;;5030629;28;25058;-70
2023/12/22 09:26:00;;;;;;;12.25;8.52;;;;;;;;;;5031044;28;25138;-70
2023/12/22 09:28:26;;;;;;;15.65;8.98;;;;;;;;;;5025829;28;25100;-70
2023/12/22 09:30:52;;;;;;;15.55;9.18;;;;;;;;;;5032702;28;25143;-72
2023/12/22 09:33:18;;;;;;;15.02;8.98;;;;;;;;;;5026369;28;25085;-71
2023/12/22 09:35:44;;;;;;;11.95;8.60;;;;;;;;;;5029442;28;25059;-69
2023/12/22 09:38:12;;;;;;;16.52;8.95;;;;;;;;;;5027956;28;25149;-71
2023/12/22 09:40:38;;;;;;;17.10;8.40;;;;;;;;;;5030722;28;25073;-70
2023/12/22 09:43:05;;;;;;;18.25;9.88;;;;;;;;;;5023907;28;25111;-70
2023/12/22 09:45:33;;;;;;;18.48;9.20;;;;;;;;;;5020107;28;25071;-71
2023/12/22 09:48:00;;;;;;;18.42;8.85;;;;;;;;;;5021475;28;25075;-71
2023/12/22 09:50:26;;;;;;;20.27;9.68;;;;;;;;;;5018947;28;25062;-71
2023/12/22 09:52:52;;;;;;;11.27;8.38;;;;;;;;;;5022911;28;25061;-70
2023/12/22 09:55:19;;;;;;;16.95;8.80;;;;;;;;;;5014347;28;25094;-72
2023/12/22 09:57:46;;;;;;;14.77;8.85;;;;;;;;;;5018911;28;25073;-72
2023/12/22 10:00:15;;;;;;;10.57;8.80;;;;;;;;;;5026118;28;25053;-71
2023/12/22 10:02:42;;;;;;;16.15;9.77;;;;;;;;;;5020984;28;25057;-74
2023/12/22 10:05:10;;;;;;;14.05;10.65;;;;;;;;;;5017951;28;25068;-71
2023/12/22 10:07:36;;;;;;;17.90;9.70;;;;;;;;;;5016501;28;25072;-72
2023/12/22 10:10:02;;;;;;;19.92;9.23;;;;;;;;;;5030037;28;25057;-71
2023/12/22 10:12:32;;;;;;;19.88;9.65;;;;;;;;;;5026922;28;25051;-72
2023/12/22 10:14:59;;;;;;;19.92;10.45;;;;;;;;;;5020729;28;25049;-72
2023/12/22 10:17:25;;;;;;;19.88;9.75;;;;;;;;;;5022416;28;25113;-72
2023/12/22 10:19:51;;;;;;;12.38;8.65;;;;;;;;;;5022080;28;25150;-71
2023/12/22 10:22:18;;;;;;;17.90;10.00;;;;;;;;;;5019560;28;25107;-70
2023/12/22 10:24:50;;;;;;;16.58;9.02;;;;;;;;;;5019008;28;25072;-73
2023/12/22 10:27:24;;;;;;;15.30;8.98;;;;;;;;;;5024997;28;25060;-73
2023/12/22 10:29:50;;;;;;;15.43;9.20;;;;;;;;;;5020729;28;25058;-72
2023/12/22 10:32:17;;;;;;;11.85;9.25;;;;;;;;;;5021985;28;25139;-72
2023/12/22 10:34:43;;;;;;;17.30;8.48;;;;;;;;;;5018619;28;25142;-72
2023/12/22 10:37:09;;;;;;;16.08;9.10;;;;;;;;;;5023036;28;25083;-73
2023/12/22 10:39:36;;;;;;;14.38;8.75;;;;;;;;;;5019811;28;25090;-71
2023/12/22 10:42:02;;;;;;;13.27;7.65;;;;;;;;;;5019675;28;25069;-72
2023/12/22 10:44:29;;;;;;;15.45;8.55;;;;;;;;;;5026003;28;25119;-73
2023/12/22 10:46:55;;;;;;;14.55;7.38;;;;;;;;;;5035893;28;25051;-71
2023/12/22 10:49:21;;;;;;;15.57;8.20;;;;;;;;;;5053720;28;25054;-70
2023/12/22 10:51:47;;;;;;;11.20;7.13;;;;;;;;;;5046317;28;25062;-72
2023/12/22 10:54:14;;;;;;;11.93;7.03;;;;;;;;;;5049671;28;25070;-73
2023/12/22 10:56:40;;;;;;;18.23;6.95;;;;;;;;;;5046724;28;25088;-72
2023/12/22 10:59:06;;;;;;;17.00;7.25;;;;;;;;;;5044215;28;25078;-73
2023/12/22 11:01:38;;;;;;;11.15;6.97;;;;;;;;;;5040920;28;25084;-71
2023/12/22 11:04:05;;;;;;;17.60;9.05;;;;;;;;;;5043476;28;25189;-73
2023/12/22 11:06:34;;;;;;;18.00;8.57;;;;;;;;;;5043351;28;25068;-71
2023/12/22 11:09:00;;;;;;;15.20;7.63;;;;;;;;;;5023973;28;25086;-73
2023/12/22 11:11:36;;;;;;;18.20;7.78;;;;;;;;;;5026005;28;25144;-71
2023/12/22 11:14:03;;;;;;;14.25;8.48;;;;;;;;;;5020937;28;25093;-71
2023/12/22 11:16:29;;;;;;;16.90;8.75;;;;;;;;;;5025410;28;25079;-70
2023/12/22 11:18:56;;;;;;;14.85;8.13;;;;;;;;;;5021023;28;25059;-70
2023/12/22 11:21:25;;;;;;;13.50;8.48;;;;;;;;;;5022372;28;25055;-71
2023/12/22 11:23:52;;;;;;;22.13;8.43;;;;;;;;;;5023877;28;25045;-71
2023/12/22 11:26:18;;;;;;;13.90;8.32;;;;;;;;;;5019119;28;25073;-71
2023/12/22 11:28:46;;;;;;;15.88;9.38;;;;;;;;;;5019981;28;25074;-72
2023/12/22 11:31:12;;;;;;;13.25;8.98;;;;;;;;;;5024918;28;25066;-72
2023/12/22 11:33:40;;;;;;;15.43;9.23;;;;;;;;;;5021494;28;25072;-71
2023/12/22 11:36:07;;;;;;;11.27;7.63;;;;;;;;;;5022460;28;25072;-72
2023/12/22 11:38:33;;;;;;;14.98;8.93;;;;;;;;;;5023415;28;25174;-71
2023/12/22 11:41:00;;;;;;;12.95;8.90;;;;;;;;;;5022945;28;25080;-72
2023/12/22 11:43:26;;;;;;;18.27;9.50;;;;;;;;;;5024957;28;25076;-70
2023/12/22 11:45:52;;;;;;;11.75;8.90;;;;;;;;;;5017562;28;25083;-71
2023/12/22 11:48:18;;;;;;;16.98;9.00;;;;;;;;;;5024122;28;25133;-72
2023/12/22 11:50:44;;;;;;;19.65;9.80;;;;;;;;;;5019076;28;25053;-71
2023/12/22 11:53:18;;;;;;;12.93;8.60;;;;;;;;;;5024193;28;25051;-72
2023/12/22 11:56:07;;;;;;;13.80;8.15;;;;;;;;;;5019813;28;25050;-71
2023/12/22 11:58:54;;;;;;;9.52;7.15;;;;;;;;;;5019826;28;25055;-71
2023/12/22 12:01:22;;;;;;;15.70;7.55;;;;;;;;;;5024244;28;25059;-72
2023/12/22 12:03:48;;;;;;;11.70;7.15;;;;;;;;;;5022423;28;25098;-72
2023/12/22 12:06:16;;;;;;;10.07;7.70;;;;;;;;;;5024624;28;25077;-71
2023/12/22 12:08:42;;;;;;;12.00;7.13;;;;;;;;;;5029244;28;25084;-72
2023/12/22 12:11:08;;;;;;;16.48;7.10;;;;;;;;;;5029445;28;25056;-71
2023/12/22 12:13:34;;;;;;;15.85;7.30;;;;;;;;;;5028498;28;25053;-72
2023/12/22 12:16:02;;;;;;;12.57;6.28;;;;;;;;;;5025837;28;25070;-71
2023/12/22 12:18:29;;;;;;;16.58;6.32;;;;;;;;;;5026928;28;25063;-73
2023/12/22 12:20:54;;;;;;;18.15;7.20;;;;;;;;;;5025752;28;25147;-73
2023/12/22 12:23:21;;;;;;;16.25;6.57;;;;;;;;;;5024088;28;25117;-71
2023/12/22 12:25:48;;;;;;;9.82;5.95;;;;;;;;;;5027970;28;25075;-73
2023/12/22 12:28:16;;;;;;;16.52;6.80;;;;;;;;;;5028169;28;25175;-76
2023/12/22 12:30:42;;;;;;;15.80;6.13;;;;;;;;;;5021438;28;25170;-74
2023/12/22 12:33:11;;;;;;;10.63;6.20;;;;;;;;;;5026976;28;25156;-73
2023/12/22 12:35:44;;;;;;;16.15;6.65;;;;;;;;;;5029382;28;25048;-71
2023/12/22 12:38:10;;;;;;;19.83;7.10;;;;;;;;;;5023830;28;25093;-73
2023/12/22 12:40:38;;;;;;;18.27;7.78;;;;;;;;;;5025938;28;25078;-72
2023/12/22 12:43:04;;;;;;;24.17;7.57;;;;;;;;;;5032358;28;25064;-73
2023/12/22 12:45:30;;;;;;;18.15;8.02;;;;;;;;;;5038919;28;25096;-71
2023/12/22 12:47:57;;;;;;;19.05;7.70;;;;;;;;;;5023170;28;25081;-73
2023/12/22 12:50:23;;;;;;;18.85;7.40;;;;;;;;;;5029058;28;25065;-72
2023/12/22 12:52:49;;;;;;;14.85;7.15;;;;;;;;;;5022456;28;25084;-73
2023/12/22 12:55:18;;;;;;;15.25;7.35;;;;;;;;;;5025799;28;25073;-73
2023/12/22 12:57:44;;;;;;;13.73;7.93;;;;;;;;;;5022461;28;25067;-73
2023/12/22 13:00:10;;;;;;;16.95;8.10;;;;;;;;;;5025726;28;25048;-75
2023/12/22 13:02:36;;;;;;;17.27;7.30;;;;;;;;;;5024112;28;25063;-73
2023/12/22 13:05:04;;;;;;;15.27;7.22;;;;;;;;;;5028200;28;25134;-70
2023/12/22 13:07:30;;;;;;;17.70;7.93;;;;;;;;;;5026088;28;25069;-73
2023/12/22 13:09:56;;;;;;;22.70;8.35;;;;;;;;;;5025897;28;25108;-71
2023/12/22 13:12:26;;;;;;;16.17;8.00;;;;;;;;;;5021940;28;25071;-73
2023/12/22 13:14:52;;;;;;;24.20;8.93;;;;;;;;;;5030360;28;25052;-74
2023/12/22 13:17:18;;;;;;;21.20;8.93;;;;;;;;;;5030622;28;25107;-72
2023/12/22 13:19:45;;;;;;;13.38;7.45;;;;;;;;;;5020129;28;25078;-72
2023/12/22 13:22:11;;;;;;;18.75;8.45;;;;;;;;;;5020846;28;25125;-73
2023/12/22 13:24:37;;;;;;;16.08;7.85;;;;;;;;;;5024880;28;25176;-70
2023/12/22 13:27:05;;;;;;;23.63;9.15;;;;;;;;;;5025443;28;25067;-71
2023/12/22 13:29:42;;;;;;;18.83;8.38;;;;;;;;;;5012094;28;25115;-72
2023/12/22 13:32:08;;;;;;;16.05;8.20;;;;;;;;;;5021539;28;25077;-71
2023/12/22 13:34:34;;;;;;;20.92;8.27;;;;;;;;;;5026556;28;25074;-71
2023/12/22 13:37:03;;;;;;;18.55;9.07;;;;;;;;;;5023160;28;25091;-73
2023/12/22 13:39:30;;;;;;;19.65;8.10;;;;;;;;;;5021669;28;25096;-71
2023/12/22 13:41:56;;;;;;;20.02;8.35;;;;;;;;;;5025253;28;25102;-71
2023/12/22 13:44:21;;;;;;;18.55;7.90;;;;;;;;;;5020891;28;25068;-71
2023/12/22 13:46:48;;;;;;;14.82;7.90;;;;;;;;;;5019799;28;25171;-72
2023/12/22 13:49:14;;;;;;;19.63;7.40;;;;;;;;;;5020420;28;25075;-70
2023/12/22 13:51:40;;;;;;;19.80;8.05;;;;;;;;;;5021726;28;25048;-76
2023/12/22 13:54:06;;;;;;;17.92;7.85;;;;;;;;;;5027118;28;25151;-71
2023/12/22 13:56:36;;;;;;;23.98;7.68;;;;;;;;;;5018321;28;25158;-71
2023/12/22 13:59:03;;;;;;;15.48;7.60;;;;;;;;;;5024798;28;25129;-70
2023/12/22 14:01:28;;;;;;;24.08;7.40;;;;;;;;;;5028440;28;25115;-71
2023/12/22 14:03:57;;;;;;;17.80;7.25;;;;;;;;;;5025410;28;25160;-71
2023/12/22 14:06:23;;;;;;;20.77;7.28;;;;;;;;;;5020240;28;25098;-71
2023/12/22 14:08:49;;;;;;;21.10;8.57;;;;;;;;;;5022664;28;25071;-71
2023/12/22 14:11:15;;;;;;;24.10;7.90;;;;;;;;;;5027380;28;25067;-71
2023/12/22 14:13:41;;;;;;;20.02;8.38;;;;;;;;;;5017605;28;25064;-72
2023/12/22 14:16:07;;;;;;;20.15;7.72;;;;;;;;;;5030587;28;25071;-72
2023/12/22 14:18:33;;;;;;;30.20;7.43;;;;;;;;;;5027406;28;25051;-71
2023/12/22 14:21:00;;;;;;;24.08;7.97;;;;;;;;;;5022818;28;25065;-72
2023/12/22 14:23:27;;;;;;;24.13;8.35;;;;;;;;;;5025503;28;25162;-73
2023/12/22 14:25:53;;;;;;;20.08;8.00;;;;;;;;;;5023866;28;25075;-71